Dubuque Regional Airport
KDBQ : now visible

Airfield :











YOU CAN JOIN US ON...

 
LOGIN :

Register | Disclaimer

   EN    FR    IT 

 









Legend :    VFR   Marginal VFR   IFR   Intensive IFR   Very Intensive IFR
Visi :
Ceiling :
>= 8 km
>= 3000ft
5 to 8 km
1000 to 3000 ft
1500m to 5 km
500 to 1000 ft
800 to 1500m
200 to 500 ft
< 800m
< 200 ft
Symbols :   Thunderstorms  Fog  Heavy snow  Heavy precipitations  Wind > 20 kt






- Airport Elevation : 1077 ft
- IATA code : DBQ


KDBQ - Dubuque Regional

CURRENT METAR :
  • 181053Z AUTO 18007KT 3SM BR OVC003 M01/M02 A2971 RMK AO2 SLP074 I1002 T10111017

EXPIRED METARs :
  • 181009Z AUTO 16009KT 4SM BR OVC003 M01/M02 A2974 RMK AO2 I1001 T10111017
  • 180953Z AUTO 16008KT 2 1/2SM BR OVC003 M01/M02 A2975 RMK AO2 SLP087 I1004 T10111017
  • 180900Z AUTO 15012KT 2SM BR OVC004 M02/M02 A2978 RMK AO2 I1000 T10171022
  • 180853Z AUTO 15010KT 2 1/2SM BR OVC005 M02/M02 A2979 RMK AO2 SLP103 60004 I1002 I3006 T10171022 56027

TAF KDBQ
Valid from the 18 at 08:00 until the 19 at 06:00 UTC


180812Z 1808/1906 15011G18KT 2SM -FZDZ BR OVC006
FM181200 21010KT 1SM -FZDZ BR OVC002
FM181400 25015G25KT 2SM -SHSN OVC006
FM181700 31022G32KT 5SM BLSN OVC012
FM190000 30015G25KT P6SM BKN025



MET'MAP, your aeronautical weather chart ! - Copyright ORBIFLY December 2007 - Disclaimer

ORBIFLY MET'MAP TEAM :

Programming & Development : Alexandra Zaïnal
Concept & original design : Baudouin d'Aumeries
Assistance for programming : Marc-Olivier Méhu
Technical & hardware support : Manuel Goepfert

Contact : metmap@orbifly.com




SOURCES & CREDITS :

   NOAA       Earth
Advisory